createdAt,value
2019-05-25T00:02:14.017Z,85.43
2019-05-25T00:04:42.348Z,85.54
2019-05-25T00:07:10.658Z,85.82
2019-05-25T00:09:38.964Z,85.97
2019-05-25T00:12:07.272Z,87.20
2019-05-25T00:14:35.554Z,87.82
2019-05-25T00:17:04.028Z,88.02
2019-05-25T00:19:32.369Z,87.89
2019-05-25T00:22:00.739Z,88.24
2019-05-25T00:24:29.176Z,88.29
2019-05-25T00:26:57.465Z,88.45
2019-05-25T00:29:25.984Z,88.83
2019-05-25T00:31:54.321Z,89.84
2019-05-25T00:34:22.945Z,89.74
2019-05-25T00:36:51.231Z,90.84
2019-05-25T00:39:19.634Z,91.22
2019-05-25T00:41:48.295Z,91.13
2019-05-25T00:44:16.662Z,90.91
2019-05-25T00:46:44.981Z,90.77
2019-05-25T00:49:13.423Z,90.67
2019-05-25T00:51:41.806Z,90.55
2019-05-25T00:54:10.105Z,90.38
2019-05-25T00:56:38.392Z,90.29
2019-05-25T00:59:06.690Z,89.80
2019-05-25T01:01:34.994Z,89.06
2019-05-25T01:04:03.416Z,88.96
2019-05-25T01:06:34.834Z,88.68
2019-05-25T01:09:03.555Z,88.51
2019-05-25T01:11:32.637Z,89.28
2019-05-25T01:14:00.947Z,88.76
2019-05-25T01:16:29.208Z,88.92
2019-05-25T01:18:57.510Z,89.51
2019-05-25T01:21:25.855Z,89.35
2019-05-25T01:23:54.180Z,89.38
2019-05-25T01:26:22.482Z,89.33
2019-05-25T01:28:50.781Z,89.06
2019-05-25T01:31:19.070Z,89.48
2019-05-25T01:33:47.397Z,89.41
2019-05-25T01:36:15.698Z,89.35
2019-05-25T01:38:44.075Z,89.60
2019-05-25T01:41:12.477Z,89.62
2019-05-25T01:43:40.763Z,89.65
2019-05-25T01:46:09.344Z,89.90
2019-05-25T01:48:37.654Z,89.89
2019-05-25T01:51:05.974Z,89.92
2019-05-25T01:53:34.655Z,89.95
2019-05-25T01:56:02.938Z,89.95
2019-05-25T01:58:31.270Z,89.85
2019-05-25T02:00:59.588Z,90.31
2019-05-25T02:03:27.969Z,90.60
2019-05-25T02:05:56.383Z,91.04
2019-05-25T02:08:24.831Z,91.07
2019-05-25T02:10:53.309Z,91.36
2019-05-25T02:13:21.597Z,91.15
2019-05-25T02:15:49.979Z,90.86
2019-05-25T02:18:18.283Z,91.02
2019-05-25T02:20:46.628Z,91.32
2019-05-25T02:23:15.061Z,91.53
2019-05-25T02:25:43.375Z,91.60
2019-05-25T02:28:11.657Z,91.53
2019-05-25T02:30:40.075Z,91.86
2019-05-25T02:33:08.356Z,91.82
2019-05-25T02:35:36.807Z,92.44
2019-05-25T02:38:05.108Z,92.38
2019-05-25T02:40:33.405Z,92.50
2019-05-25T02:43:01.742Z,92.74
2019-05-25T02:45:30.021Z,92.75
2019-05-25T02:47:58.385Z,92.84
2019-05-25T02:50:26.783Z,93.16
2019-05-25T02:52:55.139Z,93.24
2019-05-25T02:55:33.918Z,93.24
2019-05-25T02:57:53.841Z,93.13
2019-05-25T03:00:32.682Z,92.94
2019-05-25T03:03:01.133Z,93.17
2019-05-25T03:05:29.414Z,92.95
2019-05-25T03:07:58.159Z,93.21
2019-05-25T03:10:26.483Z,92.65
2019-05-25T03:12:56.481Z,92.51
2019-05-25T03:15:24.885Z,92.03
2019-05-25T03:17:53.256Z,91.79
2019-05-25T03:20:21.536Z,91.59
2019-05-25T03:22:49.834Z,91.71
2019-05-25T03:25:18.203Z,91.66
2019-05-25T03:27:46.720Z,92.01
2019-05-25T03:30:15.091Z,92.03
2019-05-25T03:32:43.371Z,92.02
2019-05-25T03:35:11.701Z,92.01
2019-05-25T03:37:39.985Z,91.99
2019-05-25T03:40:08.366Z,91.60
2019-05-25T03:42:36.683Z,91.01
2019-05-25T03:45:06.586Z,91.38
2019-05-25T03:47:34.894Z,91.33
2019-05-25T03:50:03.274Z,91.64
2019-05-25T03:52:31.607Z,91.90
2019-05-25T03:55:00.076Z,91.85
2019-05-25T03:57:28.377Z,91.83
2019-05-25T03:59:56.782Z,91.50
2019-05-25T04:02:25.079Z,91.39
2019-05-25T04:04:53.399Z,90.36
2019-05-25T04:07:21.762Z,88.32
2019-05-25T04:09:50.074Z,87.46
2019-05-25T04:12:18.417Z,87.83
2019-05-25T04:14:46.831Z,88.26
2019-05-25T04:17:15.181Z,88.47
2019-05-25T04:19:43.563Z,89.68
2019-05-25T04:22:11.920Z,89.95
2019-05-25T04:24:40.199Z,90.40
2019-05-25T04:27:08.467Z,90.66
2019-05-25T04:29:36.881Z,90.68
2019-05-25T04:32:05.252Z,90.61
2019-05-25T04:34:33.529Z,90.54
2019-05-25T04:37:02.082Z,90.50
2019-05-25T04:39:30.585Z,90.42
2019-05-25T04:41:58.861Z,90.52
2019-05-25T04:44:27.853Z,90.98
2019-05-25T04:46:56.340Z,89.75
2019-05-25T04:49:24.720Z,89.30
2019-05-25T04:51:53.027Z,88.42
2019-05-25T04:54:21.386Z,87.99
2019-05-25T04:56:49.665Z,86.95
2019-05-25T04:59:18.345Z,87.12
2019-05-25T05:01:46.741Z,86.84
2019-05-25T05:04:15.011Z,86.99
2019-05-25T05:06:43.317Z,88.05
2019-05-25T05:09:11.728Z,89.11
2019-05-25T05:11:40.343Z,89.09
2019-05-25T05:14:08.623Z,88.79
2019-05-25T05:16:37.031Z,88.93
2019-05-25T05:19:05.308Z,89.11
2019-05-25T05:21:33.959Z,89.39
2019-05-25T05:24:02.336Z,89.32
2019-05-25T05:26:30.623Z,89.16
2019-05-25T05:28:58.965Z,89.28
2019-05-25T05:31:27.366Z,89.44
2019-05-25T05:33:55.646Z,87.91
2019-05-25T05:36:24.219Z,88.34
2019-05-25T05:38:52.554Z,87.97
2019-05-25T05:41:20.840Z,87.67
2019-05-25T05:43:49.123Z,87.10
2019-05-25T05:46:18.070Z,86.78
2019-05-25T05:48:46.685Z,87.24
2019-05-25T05:51:15.191Z,87.29
2019-05-25T05:53:43.436Z,86.39
2019-05-25T05:56:11.884Z,85.56
2019-05-25T05:58:41.760Z,84.49
2019-05-25T06:01:10.043Z,84.26
2019-05-25T06:03:38.340Z,85.01
2019-05-25T06:06:06.637Z,85.11
2019-05-25T06:08:35.019Z,84.59
2019-05-25T06:11:03.345Z,84.91
2019-05-25T06:13:32.490Z,85.00
2019-05-25T06:16:00.778Z,85.73
2019-05-25T06:18:29.194Z,86.61
2019-05-25T06:20:57.473Z,87.31
2019-05-25T06:23:25.750Z,87.76
2019-05-25T06:25:54.108Z,88.20
2019-05-25T06:28:22.654Z,87.70
2019-05-25T06:30:51.046Z,87.68
2019-05-25T06:33:19.427Z,87.31
2019-05-25T06:35:47.724Z,86.80
2019-05-25T06:38:16.109Z,86.16
2019-05-25T06:40:44.450Z,85.72
2019-05-25T06:43:12.852Z,86.37
2019-05-25T06:45:41.510Z,85.27
2019-05-25T06:48:09.937Z,84.04
2019-05-25T06:50:38.220Z,83.12
2019-05-25T06:53:06.549Z,82.98
2019-05-25T06:55:35.810Z,83.29
2019-05-25T06:58:04.264Z,84.06
2019-05-25T07:00:32.650Z,84.20
2019-05-25T07:03:00.945Z,82.47
2019-05-25T07:05:29.259Z,82.64
2019-05-25T07:07:57.742Z,83.32
2019-05-25T07:10:26.066Z,82.92
2019-05-25T07:12:54.390Z,83.47
2019-05-25T07:15:22.668Z,83.17
2019-05-25T07:17:50.992Z,83.12
2019-05-25T07:20:19.275Z,83.06
2019-05-25T07:22:47.916Z,83.85
2019-05-25T07:25:19.721Z,83.90
2019-05-25T07:27:58.677Z,83.53
2019-05-25T07:30:16.353Z,84.36
2019-05-25T07:32:44.943Z,84.56
2019-05-25T07:35:13.392Z,83.72
2019-05-25T07:37:41.688Z,83.65
2019-05-25T07:40:10.110Z,83.72
2019-05-25T07:42:38.481Z,82.58
2019-05-25T07:45:07.216Z,83.87
2019-05-25T07:47:35.955Z,82.66
2019-05-25T07:50:07.669Z,82.48
2019-05-25T07:52:35.947Z,81.02
2019-05-25T07:55:06.293Z,81.35
2019-05-25T07:57:34.744Z,82.29
2019-05-25T08:00:04.569Z,81.86
2019-05-25T08:02:32.854Z,81.24
2019-05-25T08:05:01.215Z,79.12
2019-05-25T08:07:29.494Z,78.89
2019-05-25T08:09:57.919Z,77.42
2019-05-25T08:12:26.193Z,78.18
2019-05-25T08:14:54.478Z,77.90
2019-05-25T08:17:22.951Z,77.85
2019-05-25T08:19:51.286Z,78.37
2019-05-25T08:22:19.560Z,78.63
2019-05-25T08:24:47.970Z,80.01
2019-05-25T08:27:16.319Z,79.93
2019-05-25T08:29:44.709Z,79.92
2019-05-25T08:32:13.125Z,81.24
2019-05-25T08:34:41.411Z,82.70
2019-05-25T08:37:09.732Z,83.54
2019-05-25T08:39:38.142Z,84.51
2019-05-25T08:42:06.478Z,85.94
2019-05-25T08:44:34.757Z,86.97
2019-05-25T08:47:03.726Z,88.50
2019-05-25T08:49:32.134Z,94.56
2019-05-25T08:52:03.988Z,96.31
2019-05-25T08:54:30.440Z,97.31
2019-05-25T08:56:58.728Z,99.00
2019-05-25T08:59:27.035Z,98.58
2019-05-25T09:01:55.354Z,98.73
2019-05-25T09:04:25.614Z,98.02
2019-05-25T09:06:53.678Z,94.87
2019-05-25T09:09:22.050Z,93.65
2019-05-25T09:11:50.427Z,91.18
2019-05-25T09:14:18.940Z,90.73
2019-05-25T09:16:47.245Z,89.00
2019-05-25T09:19:15.544Z,84.71
2019-05-25T09:22:01.017Z,85.00
2019-05-25T09:24:13.947Z,84.83
2019-05-25T09:26:42.547Z,84.40
2019-05-25T09:29:11.024Z,82.59
2019-05-25T09:31:39.437Z,81.26
2019-05-25T09:34:07.731Z,80.07
2019-05-25T09:36:35.993Z,79.25
2019-05-25T09:39:06.823Z,79.17
2019-05-25T09:41:35.147Z,78.74
2019-05-25T09:44:04.199Z,77.84
2019-05-25T09:46:32.654Z,76.90
2019-05-25T09:49:02.621Z,76.43
2019-05-25T09:51:31.351Z,76.30
2019-05-25T09:53:59.658Z,77.04
2019-05-25T09:56:27.961Z,77.04
2019-05-25T09:58:56.400Z,77.57
2019-05-25T10:01:24.897Z,77.18
2019-05-25T10:03:56.498Z,76.19
2019-05-25T10:06:23.294Z,77.57
2019-05-25T10:08:51.604Z,77.32
2019-05-25T10:11:19.890Z,77.85
2019-05-25T10:13:48.197Z,78.22
2019-05-25T10:16:16.609Z,76.74
2019-05-25T10:18:44.887Z,76.98
2019-05-25T10:21:15.061Z,77.93
2019-05-25T10:23:43.260Z,78.10
2019-05-25T10:26:11.551Z,78.00
2019-05-25T10:28:39.844Z,77.59
2019-05-25T10:31:08.191Z,77.43
2019-05-25T10:33:36.472Z,77.38
2019-05-25T10:36:04.948Z,77.02
2019-05-25T10:38:33.246Z,75.52
2019-05-25T10:41:01.645Z,74.98
2019-05-25T10:43:29.932Z,75.83
2019-05-25T10:45:58.258Z,75.98
2019-05-25T10:48:26.666Z,76.93
2019-05-25T10:50:55.151Z,78.29
2019-05-25T10:53:23.447Z,79.17
2019-05-25T10:55:51.870Z,79.05
2019-05-25T10:58:20.176Z,78.59
2019-05-25T11:00:49.085Z,78.54
2019-05-25T11:03:17.504Z,77.54
2019-05-25T11:05:45.788Z,77.91
2019-05-25T11:08:14.162Z,76.62
2019-05-25T11:10:42.694Z,76.55
2019-05-25T11:13:11.033Z,76.07
2019-05-25T11:15:40.580Z,75.88
2019-05-25T11:18:09.073Z,75.72
2019-05-25T11:20:37.356Z,75.94
2019-05-25T11:23:05.886Z,75.83
2019-05-25T11:25:34.194Z,75.40
2019-05-25T11:28:02.594Z,76.37
2019-05-25T11:30:30.867Z,75.17
2019-05-25T11:32:59.152Z,75.38
2019-05-25T11:35:27.504Z,74.77
2019-05-25T11:37:57.352Z,73.47
2019-05-25T11:40:25.702Z,71.53
2019-05-25T11:42:53.994Z,71.72
2019-05-25T11:45:22.440Z,68.00
2019-05-25T11:47:50.717Z,68.05
2019-05-25T11:50:19.366Z,67.85
2019-05-25T11:52:48.014Z,67.66
2019-05-25T11:55:16.334Z,66.67
2019-05-25T11:57:44.743Z,65.18
2019-05-25T12:00:24.502Z,65.99
2019-05-25T12:02:45.285Z,65.70
2019-05-25T12:05:13.622Z,65.61
2019-05-25T12:07:44.716Z,63.95
2019-05-25T12:10:12.090Z,64.41
2019-05-25T12:12:40.579Z,65.26
2019-05-25T12:15:08.923Z,65.79
2019-05-25T12:17:37.294Z,65.58
2019-05-25T12:20:08.050Z,66.11
2019-05-25T12:22:36.324Z,65.39
2019-05-25T12:25:06.572Z,65.58
2019-05-25T12:27:34.857Z,65.53
2019-05-25T12:30:03.326Z,63.64
2019-05-25T12:32:31.813Z,61.79
2019-05-25T12:35:00.152Z,61.97
2019-05-25T12:37:28.451Z,62.52
2019-05-25T12:39:56.933Z,63.21
2019-05-25T12:42:26.011Z,63.79
2019-05-25T12:44:54.296Z,62.47
2019-05-25T12:47:22.656Z,62.57
2019-05-25T12:49:51.345Z,62.47
2019-05-25T12:52:19.742Z,62.41
2019-05-25T12:54:48.197Z,62.22
2019-05-25T12:57:16.502Z,61.13
2019-05-25T12:59:46.657Z,59.21
2019-05-25T13:02:14.927Z,55.74
2019-05-25T13:04:43.257Z,55.49
2019-05-25T13:07:11.602Z,57.10
2019-05-25T13:09:39.923Z,56.15
2019-05-25T13:12:08.414Z,56.43
2019-05-25T13:14:36.719Z,55.19
2019-05-25T13:17:05.268Z,56.18
2019-05-25T13:19:33.685Z,56.19
2019-05-25T13:22:01.972Z,55.56
2019-05-25T13:24:30.256Z,56.31
2019-05-25T13:26:58.657Z,55.93
2019-05-25T13:29:27.058Z,55.61
2019-05-25T13:31:55.338Z,54.39
2019-05-25T13:34:24.128Z,55.03
2019-05-25T13:36:52.401Z,55.24
2019-05-25T13:39:20.887Z,55.68
2019-05-25T13:41:50.208Z,54.12
2019-05-25T13:44:18.500Z,55.38
2019-05-25T13:46:46.849Z,55.29
2019-05-25T13:49:15.246Z,55.28
2019-05-25T13:51:44.468Z,54.70
2019-05-25T13:54:13.529Z,52.06
2019-05-25T13:56:41.836Z,51.61
2019-05-25T13:59:10.112Z,51.91
2019-05-25T14:01:38.542Z,52.88
2019-05-25T14:04:06.822Z,52.66
2019-05-25T14:06:35.105Z,50.90
2019-05-25T14:09:04.846Z,50.43
2019-05-25T14:11:33.603Z,50.34
2019-05-25T14:14:01.927Z,50.42
2019-05-25T14:16:30.257Z,50.00
2019-05-25T14:18:58.541Z,50.96
2019-05-25T14:21:26.854Z,51.29
2019-05-25T14:23:55.185Z,51.96
2019-05-25T14:26:23.494Z,51.75
2019-05-25T14:28:51.773Z,52.90
2019-05-25T14:31:20.180Z,51.51
2019-05-25T14:33:48.635Z,51.14
2019-05-25T14:36:17.022Z,50.13
2019-05-25T14:38:45.467Z,49.42
2019-05-25T14:41:13.820Z,49.60
2019-05-25T14:43:42.142Z,50.37
2019-05-25T14:46:10.609Z,51.11
2019-05-25T14:48:40.248Z,50.41
2019-05-25T14:53:35.974Z,50.39
2019-05-25T14:56:04.390Z,50.73
2019-05-25T14:58:32.704Z,49.95
2019-05-25T15:01:01.088Z,49.55
2019-05-25T15:03:29.664Z,50.73
2019-05-25T15:05:59.798Z,50.68
2019-05-25T15:08:28.174Z,50.68
2019-05-25T15:10:56.687Z,51.67
2019-05-25T15:13:25.037Z,52.29
2019-05-25T15:15:53.323Z,52.06
2019-05-25T15:18:21.623Z,52.73
2019-05-25T15:20:49.903Z,53.10
2019-05-25T15:23:18.205Z,52.65
2019-05-25T15:25:46.481Z,52.69
2019-05-25T15:28:14.839Z,52.73
2019-05-25T15:30:43.128Z,53.28
2019-05-25T15:33:11.383Z,53.25
2019-05-25T15:35:39.862Z,54.10
2019-05-25T15:38:08.141Z,53.12
2019-05-25T15:40:39.026Z,53.59
2019-05-25T15:43:06.572Z,54.89
2019-05-25T15:45:34.852Z,53.69
2019-05-25T15:48:03.150Z,54.06
2019-05-25T15:50:31.559Z,54.35
2019-05-25T15:52:59.914Z,53.17
2019-05-25T15:55:28.195Z,53.03
2019-05-25T15:57:56.597Z,53.94
2019-05-25T16:00:46.089Z,53.84
2019-05-25T16:03:15.404Z,54.30
2019-05-25T16:05:43.755Z,54.35
2019-05-25T16:08:12.132Z,53.63
2019-05-25T16:10:40.419Z,52.67
2019-05-25T16:13:08.792Z,52.42
2019-05-25T16:15:37.099Z,52.72
2019-05-25T16:18:05.422Z,51.82
2019-05-25T16:20:33.941Z,51.80
2019-05-25T16:23:02.288Z,51.96
2019-05-25T16:25:30.765Z,51.00
2019-05-25T16:27:59.110Z,50.14
2019-05-25T16:30:31.270Z,50.46
2019-05-25T16:33:11.589Z,50.39
2019-05-25T16:35:27.690Z,50.05
2019-05-25T16:37:56.293Z,50.13
2019-05-25T16:40:25.039Z,49.62
2019-05-25T16:42:53.313Z,49.29
2019-05-25T16:45:21.595Z,50.48
2019-05-25T16:47:49.994Z,50.31
2019-05-25T16:50:19.144Z,51.00
2019-05-25T16:52:47.675Z,50.58
2019-05-25T16:55:16.162Z,49.81
2019-05-25T16:57:45.220Z,49.45
2019-05-25T17:00:14.872Z,49.80
2019-05-25T17:02:43.249Z,49.82
2019-05-25T17:05:11.692Z,49.77
2019-05-25T17:07:39.985Z,50.24
2019-05-25T17:10:08.292Z,49.62
2019-05-25T17:12:36.576Z,49.62
2019-05-25T17:15:06.540Z,50.14
2019-05-25T17:17:34.815Z,50.24
2019-05-25T17:20:03.198Z,49.89
2019-05-25T17:22:31.571Z,50.53
2019-05-25T17:24:59.838Z,49.86
2019-05-25T17:27:28.129Z,50.18
2019-05-25T17:29:56.451Z,50.19
2019-05-25T17:32:24.850Z,50.63
2019-05-25T17:34:53.143Z,50.16
2019-05-25T17:37:21.417Z,50.83
2019-05-25T17:39:49.746Z,51.73
2019-05-25T17:42:18.105Z,51.83
2019-05-25T17:44:46.584Z,50.57
2019-05-25T17:47:15.060Z,51.22
2019-05-25T17:49:43.433Z,51.05
2019-05-25T17:52:11.867Z,51.32
2019-05-25T17:54:40.138Z,52.05
2019-05-25T17:57:08.458Z,52.25
2019-05-25T17:59:36.724Z,53.14
2019-05-25T18:02:05.070Z,52.60
2019-05-25T18:04:33.374Z,52.32
2019-05-25T18:07:01.649Z,52.63
2019-05-25T18:09:29.990Z,53.01
2019-05-25T18:11:58.408Z,53.20
2019-05-25T18:14:26.700Z,53.59
2019-05-25T18:16:54.997Z,53.87
2019-05-25T18:19:23.402Z,54.22
2019-05-25T18:21:51.688Z,54.60
2019-05-25T18:24:20.166Z,54.32
2019-05-25T18:26:48.519Z,55.26
2019-05-25T18:29:16.796Z,55.44
2019-05-25T18:31:45.110Z,55.29
2019-05-25T18:34:22.147Z,55.68
2019-05-25T18:36:43.684Z,55.90
2019-05-25T18:39:12.153Z,56.06
2019-05-25T18:41:40.438Z,56.37
2019-05-25T18:44:08.839Z,56.62
2019-05-25T18:46:38.207Z,56.62
2019-05-25T18:49:06.623Z,56.70
2019-05-25T18:51:34.971Z,56.76
2019-05-25T18:54:03.490Z,57.08
2019-05-25T18:56:33.285Z,57.44
2019-05-25T18:59:02.314Z,58.00
2019-05-25T19:01:30.775Z,58.27
2019-05-25T19:03:59.054Z,58.56
2019-05-25T19:06:27.332Z,59.00
2019-05-25T19:08:55.911Z,59.15
2019-05-25T19:11:25.287Z,59.56
2019-05-25T19:13:53.568Z,59.83
2019-05-25T19:16:21.878Z,60.28
2019-05-25T19:18:50.356Z,60.67
2019-05-25T19:21:19.006Z,60.95
2019-05-25T19:23:47.279Z,61.02
2019-05-25T19:26:15.600Z,61.11
2019-05-25T19:28:43.898Z,61.41
2019-05-25T19:31:12.183Z,61.69
2019-05-25T19:33:40.629Z,61.97
2019-05-25T19:36:09.076Z,62.48
2019-05-25T19:38:37.354Z,63.07
2019-05-25T19:41:05.682Z,63.83
2019-05-25T19:43:34.005Z,64.09
2019-05-25T19:46:02.305Z,64.45
2019-05-25T19:48:30.689Z,64.62
2019-05-25T19:50:59.092Z,64.83
2019-05-25T19:53:27.423Z,64.90
2019-05-25T19:55:55.831Z,65.03
2019-05-25T19:58:24.115Z,65.23
2019-05-25T20:00:52.402Z,65.29
2019-05-25T20:03:20.713Z,65.44
2019-05-25T20:05:49.009Z,65.57
2019-05-25T20:08:17.366Z,65.61
2019-05-25T20:10:45.729Z,65.91
2019-05-25T20:13:14.010Z,66.24
2019-05-25T20:15:42.466Z,66.53
2019-05-25T20:18:10.805Z,66.99
2019-05-25T20:20:39.168Z,67.44
2019-05-25T20:23:07.475Z,67.75
2019-05-25T20:25:35.943Z,68.08
2019-05-25T20:28:04.352Z,68.48
2019-05-25T20:30:32.706Z,69.07
2019-05-25T20:33:00.997Z,69.74
2019-05-25T20:35:33.493Z,70.05
2019-05-25T20:38:00.940Z,70.34
2019-05-25T20:40:29.323Z,70.80
2019-05-25T20:42:57.978Z,71.27
2019-05-25T20:45:26.287Z,72.01
2019-05-25T20:47:54.576Z,72.35
2019-05-25T20:50:23.058Z,72.98
2019-05-25T20:52:51.457Z,73.35
2019-05-25T20:55:19.758Z,73.66
2019-05-25T20:57:48.191Z,73.80
2019-05-25T21:00:17.738Z,73.94
2019-05-25T21:03:04.242Z,74.02
2019-05-25T21:05:17.100Z,74.27
2019-05-25T21:07:45.384Z,74.68
2019-05-25T21:10:13.790Z,75.10
2019-05-25T21:12:42.075Z,75.55
2019-05-25T21:15:10.628Z,75.75
2019-05-25T21:17:38.907Z,76.02
2019-05-25T21:20:07.194Z,75.99
2019-05-25T21:22:35.497Z,75.84
2019-05-25T21:25:06.388Z,75.97
2019-05-25T21:27:34.948Z,76.23
2019-05-25T21:30:03.325Z,76.48
2019-05-25T21:32:31.740Z,76.64
2019-05-25T21:35:00.022Z,77.02
2019-05-25T21:37:28.305Z,77.23
2019-05-25T21:39:56.682Z,77.81
2019-05-25T21:42:25.022Z,78.20
2019-05-25T21:44:53.329Z,78.82
2019-05-25T21:47:21.778Z,79.05
2019-05-25T21:49:50.335Z,79.65
2019-05-25T21:52:18.582Z,80.22
2019-05-25T21:54:46.866Z,80.41
2019-05-25T21:57:15.244Z,80.44
2019-05-25T21:59:43.515Z,80.43
2019-05-25T22:02:11.836Z,80.55
2019-05-25T22:04:41.152Z,80.62
2019-05-25T22:07:09.532Z,80.77
2019-05-25T22:09:37.866Z,81.05
2019-05-25T22:12:06.162Z,81.07
2019-05-25T22:14:34.425Z,81.30
2019-05-25T22:17:03.168Z,81.62
2019-05-25T22:19:31.508Z,81.83
2019-05-25T22:21:59.821Z,81.92
2019-05-25T22:24:28.097Z,82.03
2019-05-25T22:26:56.378Z,82.13
2019-05-25T22:29:24.775Z,82.21
2019-05-25T22:31:53.522Z,82.32
2019-05-25T22:34:21.952Z,82.45
2019-05-25T22:36:50.288Z,82.71
2019-05-25T22:39:18.676Z,83.01
2019-05-25T22:41:47.085Z,83.24
2019-05-25T22:44:15.367Z,83.55
2019-05-25T22:46:44.283Z,83.81
2019-05-25T22:49:12.730Z,84.09
2019-05-25T22:51:41.171Z,84.32
2019-05-25T22:54:10.155Z,84.49
2019-05-25T22:56:38.482Z,84.67
2019-05-25T22:59:06.806Z,84.84
2019-05-25T23:01:35.669Z,85.16
2019-05-25T23:04:04.132Z,85.53
2019-05-25T23:06:32.398Z,85.86
2019-05-25T23:09:00.737Z,86.01
2019-05-25T23:11:29.063Z,86.14
2019-05-25T23:13:57.445Z,86.35
2019-05-25T23:16:25.797Z,86.61
2019-05-25T23:18:54.207Z,87.06
2019-05-25T23:21:22.552Z,87.36
2019-05-25T23:23:50.834Z,87.31
2019-05-25T23:26:19.224Z,87.29
2019-05-25T23:28:47.554Z,87.50
2019-05-25T23:31:15.881Z,87.75
2019-05-25T23:33:44.162Z,87.90
2019-05-25T23:36:12.442Z,88.28
2019-05-25T23:38:40.781Z,88.80
2019-05-25T23:41:09.169Z,89.16
2019-05-25T23:43:37.476Z,89.38
2019-05-25T23:46:05.800Z,89.76
2019-05-25T23:48:34.104Z,90.23
2019-05-25T23:51:02.519Z,90.44
2019-05-25T23:53:30.793Z,90.94
2019-05-25T23:55:59.121Z,91.29
2019-05-25T23:58:27.414Z,91.63
